Time;durP1;ratioP1;P1;durP2;ratioP2;P2;SDS_P1;SDS_P2;PMS_P1;PMS_P2;Temp;Humidity;BMP_temperature;BMP_pressure;BME280_temperature;BME280_humidity;BME280_pressure;Samples;Min_cycle;Max_cycle;Signal;HPM_P1;HPM_P2
2022/04/07 00:01:51;;;;;;;5.80;4.33;;;;;;;-2.09;74.42;99465.44;4980002;28;20126;-72
2022/04/07 00:04:16;;;;;;;6.77;4.80;;;;;;;-2.15;75.04;99444.19;4978298;28;20387;-75
2022/04/07 00:06:42;;;;;;;11.60;5.70;;;;;;;-2.01;74.51;99464.88;4977638;28;20043;-71
2022/04/07 00:09:07;;;;;;;6.93;4.60;;;;;;;-2.03;74.57;99456.31;4959633;28;20066;-69
2022/04/07 00:11:34;;;;;;;6.13;3.97;;;;;;;-1.99;74.22;99470.81;4976430;28;20105;-69
2022/04/07 00:14:00;;;;;;;7.68;4.47;;;;;;;-2.07;73.93;99452.25;4976597;28;20082;-69
2022/04/07 00:16:26;;;;;;;9.00;4.77;;;;;;;-2.13;73.74;99452.72;4976499;28;20553;-70
2022/04/07 00:18:51;;;;;;;7.50;4.60;;;;;;;-2.04;73.43;99463.31;4960867;28;20050;-71
2022/04/07 00:21:24;;;;;;;7.17;4.60;;;;;;;-2.10;73.86;99452.50;4976542;28;20039;-71
2022/04/07 00:23:53;;;;;;;6.10;4.38;;;;;;;-2.02;73.80;99464.03;4976152;28;20046;-71
2022/04/07 00:26:19;;;;;;;;;;;;;;;-2.00;73.36;99464.75;4959552;28;20113;-71
2022/04/07 00:28:45;;;;;;;6.70;3.97;;;;;;;-2.38;74.39;99397.19;4979381;28;20423;-73
2022/04/07 00:31:11;;;;;;;8.43;4.00;;;;;;;-2.01;73.69;99459.66;4986444;28;20049;-72
2022/04/07 00:33:37;;;;;;;5.10;3.90;;;;;;;-2.11;73.40;99440.41;4980924;28;20039;-72
2022/04/07 00:36:04;;;;;;;6.07;4.40;;;;;;;-2.05;73.98;99440.78;4985680;28;20446;-72
2022/04/07 00:38:30;;;;;;;6.32;3.80;;;;;;;-2.04;73.44;99450.25;4977554;28;20074;-73
2022/04/07 00:40:57;;;;;;;4.00;3.53;;;;;;;-2.06;73.22;99446.09;4976435;28;20532;-70
2022/04/07 00:43:30;;;;;;;4.90;3.37;;;;;;;-2.03;73.38;99438.03;4975482;28;20130;-71
2022/04/07 00:45:57;;;;;;;4.05;3.35;;;;;;;-2.10;73.24;99429.84;4959071;28;20066;-69
2022/04/07 00:48:22;;;;;;;5.07;3.03;;;;;;;-2.05;73.65;99422.50;4976903;28;20042;-72
2022/04/07 00:50:48;;;;;;;6.90;3.80;;;;;;;-2.00;73.61;99437.84;4975791;28;20034;-70
2022/04/07 00:53:13;;;;;;;7.73;2.93;;;;;;;-2.01;73.55;99441.41;4975900;28;20042;-71
2022/04/07 00:55:41;;;;;;;5.07;2.97;;;;;;;-2.10;73.44;99411.59;4975915;28;20061;-73
2022/04/07 00:58:07;;;;;;;6.72;4.00;;;;;;;-2.05;73.33;99424.28;4975741;28;20118;-71
2022/04/07 01:00:34;;;;;;;4.10;3.60;;;;;;;-2.06;73.78;99427.84;4958339;28;20046;-74
2022/04/07 01:03:00;;;;;;;7.63;4.43;;;;;;;-2.08;74.31;99424.53;4959603;28;20058;-72
2022/04/07 01:05:25;;;;;;;5.93;3.73;;;;;;;-2.11;74.24;99422.97;4976521;28;20046;-71
2022/04/07 01:07:51;;;;;;;7.57;4.80;;;;;;;-2.17;73.97;99412.19;4958436;28;20471;-69
2022/04/07 01:10:20;;;;;;;4.73;4.20;;;;;;;-2.14;73.98;99415.38;4975573;28;20039;-72
2022/04/07 01:12:46;;;;;;;5.10;3.97;;;;;;;-2.16;74.68;99421.66;4958600;28;20281;-72
2022/04/07 01:15:12;;;;;;;7.37;4.53;;;;;;;-2.13;74.36;99426.66;4975957;28;20042;-71
2022/04/07 01:17:38;;;;;;;9.00;5.53;;;;;;;-2.31;74.90;99402.78;4977511;28;20042;-72
2022/04/07 01:20:06;;;;;;;11.20;6.43;;;;;;;-2.25;75.04;99413.59;4961146;28;20030;-72
2022/04/07 01:22:38;;;;;;;9.02;5.07;;;;;;;-2.18;75.51;99424.38;4975899;28;20043;-71
2022/04/07 01:25:04;;;;;;;5.22;3.97;;;;;;;-2.20;75.20;99416.69;4975255;28;20047;-73
2022/04/07 01:27:30;;;;;;;4.35;3.70;;;;;;;-2.20;75.60;99415.84;4975286;28;20042;-72
2022/04/07 01:29:57;;;;;;;4.60;3.50;;;;;;;-2.16;75.62;99417.28;4975200;28;20036;-71
2022/04/07 01:32:34;;;;;;;4.90;3.42;;;;;;;-2.11;76.13;99414.31;4974927;28;20504;-71
2022/04/07 01:35:00;;;;;;;6.18;3.65;;;;;;;-2.21;75.61;99396.75;4977474;28;20085;-69
2022/04/07 01:37:26;;;;;;;6.53;2.95;;;;;;;-2.11;75.13;99414.31;4975343;28;20119;-70
2022/04/07 01:39:53;;;;;;;4.80;3.07;;;;;;;-2.13;75.99;99401.41;4974994;28;20123;-73
2022/04/07 01:42:19;;;;;;;4.78;4.22;;;;;;;-2.08;75.59;99398.44;4975087;28;20043;-73
2022/04/07 01:44:49;;;;;;;5.07;2.97;;;;;;;-2.11;75.66;99383.84;4974787;28;20054;-72
2022/04/07 01:47:19;;;;;;;3.67;3.17;;;;;;;-1.96;75.22;99403.56;4942010;28;20080;-73
2022/04/07 01:49:46;;;;;;;3.53;2.88;;;;;;;-1.90;75.73;99402.28;4978013;28;20062;-72
2022/04/07 01:52:12;;;;;;;4.53;3.00;;;;;;;-2.01;74.94;99376.19;4974937;28;20051;-73
2022/04/07 01:54:38;;;;;;;4.60;3.33;;;;;;;-1.93;75.30;99392.06;4957347;28;20105;-71
2022/04/07 01:57:04;;;;;;;3.38;3.00;;;;;;;-1.99;75.40;99382.09;4974679;28;20065;-72
2022/04/07 01:59:30;;;;;;;4.00;3.10;;;;;;;-2.00;75.60;99380.44;4957206;28;20062;-73
2022/04/07 02:01:56;;;;;;;3.35;2.75;;;;;;;-1.98;75.70;99381.16;4974545;28;20313;-71
2022/04/07 02:04:23;;;;;;;4.27;2.43;;;;;;;-1.99;76.29;99388.16;4976693;28;20046;-70
2022/04/07 02:06:48;;;;;;;4.38;2.30;;;;;;;-2.07;75.90;99359.19;4974535;28;20501;-72
2022/04/07 02:09:14;;;;;;;8.23;2.87;;;;;;;-1.91;76.02;99377.13;4974426;28;20035;-72
2022/04/07 02:11:44;;;;;;;2.90;2.10;;;;;;;-1.77;75.70;99392.53;4974050;28;20086;-71
2022/04/07 02:14:10;;;;;;;6.03;2.83;;;;;;;-1.75;75.48;99385.41;4956801;28;20637;-72
2022/04/07 02:16:35;;;;;;;6.60;3.53;;;;;;;-1.79;75.32;99357.91;4974155;28;20129;-72
2022/04/07 02:19:01;;;;;;;4.23;3.03;;;;;;;-1.69;75.18;99369.31;4958434;28;20080;-70
2022/04/07 02:21:26;;;;;;;4.90;2.53;;;;;;;-1.59;74.15;99377.25;4974294;28;20034;-74
2022/04/07 02:23:52;;;;;;;3.27;2.90;;;;;;;-1.56;74.47;99374.41;4974131;28;20038;-73
2022/04/07 02:26:17;;;;;;;3.67;2.63;;;;;;;-1.53;75.06;99375.94;4974617;28;20489;-71
2022/04/07 02:28:44;;;;;;;3.60;2.90;;;;;;;-1.65;74.54;99370.72;4974143;28;20451;-73
2022/04/07 02:31:11;;;;;;;4.55;3.05;;;;;;;-1.66;74.67;99370.84;4974314;28;20652;-72
2022/04/07 02:33:37;;;;;;;6.70;4.13;;;;;;;-1.71;74.72;99378.22;4959639;28;20063;-75
2022/04/07 02:36:07;;;;;;;4.85;2.55;;;;;;;-1.70;75.50;99374.66;4960819;28;20274;-71
2022/04/07 02:38:37;;;;;;;6.88;5.15;;;;;;;-1.66;75.11;99376.06;4974141;28;20039;-72
2022/04/07 02:41:03;;;;;;;5.65;4.00;;;;;;;-1.74;74.49;99354.94;4957438;28;20066;-72
2022/04/07 02:43:30;;;;;;;6.45;4.25;;;;;;;-1.67;75.09;99372.63;4962995;28;20513;-70
2022/04/07 02:45:55;;;;;;;5.73;4.07;;;;;;;-1.77;75.10;99355.19;4978789;28;20039;-74
2022/04/07 02:48:21;;;;;;;7.43;4.30;;;;;;;-1.77;75.17;99361.22;4979729;28;20031;-69
2022/04/07 02:50:47;;;;;;;5.20;3.93;;;;;;;-1.78;74.81;99361.34;4978414;28;20068;-71
2022/04/07 02:53:14;;;;;;;8.80;3.50;;;;;;;-1.82;74.92;99352.09;4956810;28;20126;-69
2022/04/07 02:55:40;;;;;;;10.50;3.83;;;;;;;-1.71;75.23;99355.56;4976972;28;20038;-72
2022/04/07 02:58:05;;;;;;;11.57;4.50;;;;;;;-1.71;74.36;99344.28;4956978;28;20442;-70
2022/04/07 03:00:31;;;;;;;7.60;4.17;;;;;;;-1.69;74.44;99348.44;4973852;28;20030;-71
2022/04/07 03:02:57;;;;;;;12.43;5.63;;;;;;;-1.65;74.16;99355.06;4974971;28;20034;-73
2022/04/07 03:05:22;;;;;;;10.77;5.20;;;;;;;-1.67;73.87;99345.69;4974762;28;20039;-72
2022/04/07 03:07:48;;;;;;;12.27;5.00;;;;;;;-1.66;73.73;99349.97;4973800;28;20066;-72
2022/04/07 03:10:15;;;;;;;11.00;5.13;;;;;;;-1.62;73.73;99339.16;4973288;28;20121;-71
2022/04/07 03:12:41;;;;;;;12.05;5.15;;;;;;;-1.57;73.96;99355.28;4973771;28;20047;-69
2022/04/07 03:15:08;;;;;;;13.70;5.32;;;;;;;-1.59;73.25;99341.53;4956233;28;20422;-72
2022/04/07 03:17:33;;;;;;;10.25;4.65;;;;;;;-1.43;72.91;99353.41;4973967;28;20038;-71
2022/04/07 03:20:00;;;;;;;8.00;4.13;;;;;;;-1.39;72.56;99346.97;4975712;28;20050;-75
2022/04/07 03:22:25;;;;;;;8.97;4.73;;;;;;;-1.40;73.45;99337.47;4973403;28;20035;-72
2022/04/07 03:24:52;;;;;;;9.03;5.63;;;;;;;-1.37;72.57;99345.91;4973362;28;20305;-69
2022/04/07 03:27:17;;;;;;;6.22;4.78;;;;;;;-1.38;73.05;99351.25;4973544;28;20064;-70
2022/04/07 03:29:43;;;;;;;9.33;4.37;;;;;;;-1.39;72.96;99344.38;4973395;28;20060;-74
2022/04/07 03:32:09;;;;;;;4.50;3.07;;;;;;;-1.44;73.18;99336.06;4973695;28;20413;-72
2022/04/07 03:34:36;;;;;;;4.77;2.93;;;;;;;-1.41;72.13;99341.03;4957232;28;20049;-72
2022/04/07 03:37:06;;;;;;;5.57;2.93;;;;;;;-1.43;73.18;99335.13;4973562;28;20379;-70
2022/04/07 03:39:33;;;;;;;6.55;2.72;;;;;;;-1.31;72.78;99348.03;4974858;28;20300;-70
2022/04/07 03:41:59;;;;;;;5.17;3.13;;;;;;;-1.25;72.67;99341.47;4979017;28;20043;-72
2022/04/07 03:44:25;;;;;;;3.10;2.67;;;;;;;-1.22;72.45;99343.00;4975034;28;20337;-73
2022/04/07 03:46:50;;;;;;;7.73;3.03;;;;;;;-1.23;71.67;99341.34;4958295;28;20070;-71
2022/04/07 03:49:16;;;;;;;28.10;10.50;;;;;;;-1.23;71.90;99334.34;4958068;28;20035;-72
2022/04/07 03:51:41;;;;;;;17.87;6.73;;;;;;;-1.19;72.36;99320.09;4975841;28;20038;-72
2022/04/07 03:54:07;;;;;;;6.17;4.43;;;;;;;-1.13;71.79;99319.59;4973033;28;20085;-73
2022/04/07 03:56:35;;;;;;;5.37;3.20;;;;;;;-1.13;71.97;99324.84;4973124;28;20039;-74
2022/04/07 03:59:03;;;;;;;3.88;2.85;;;;;;;-1.20;71.83;99305.34;4955893;28;20357;-71
2022/04/07 04:01:29;;;;;;;4.60;3.10;;;;;;;-1.21;71.70;99319.38;4955743;28;20475;-72
2022/04/07 04:03:55;;;;;;;6.87;3.60;;;;;;;-1.29;71.87;99308.72;4973560;28;20043;-72
2022/04/07 04:06:20;;;;;;;4.53;2.70;;;;;;;-1.58;71.63;99257.03;4957507;28;20776;-73
2022/04/07 04:08:46;;;;;;;4.03;3.23;;;;;;;-1.26;72.28;99304.06;4955768;28;20038;-70
2022/04/07 04:11:14;;;;;;;3.20;2.73;;;;;;;-1.22;71.70;99288.97;4972833;28;20061;-72
2022/04/07 04:13:40;;;;;;;6.93;3.00;;;;;;;-1.08;71.08;99300.94;4955714;28;20053;-70
2022/04/07 04:16:06;;;;;;;3.90;3.10;;;;;;;-1.14;70.71;99297.06;4939855;28;20042;-69
2022/04/07 04:18:32;;;;;;;6.20;2.90;;;;;;;-1.04;70.51;99292.72;4976534;28;20262;-71
2022/04/07 04:20:58;;;;;;;5.07;3.13;;;;;;;-1.09;70.18;99283.59;4979266;28;20450;-75
2022/04/07 04:23:24;;;;;;;4.18;2.97;;;;;;;-0.99;70.39;99285.34;4943575;28;20517;-68
2022/04/07 04:25:49;;;;;;;4.90;3.10;;;;;;;-0.91;70.32;99286.50;4976741;28;20038;-67
2022/04/07 04:28:15;;;;;;;5.53;3.17;;;;;;;-0.94;70.69;99277.94;4943009;28;20045;-70
2022/04/07 04:30:41;;;;;;;4.70;3.27;;;;;;;-0.94;70.23;99267.50;4976294;28;20519;-65
2022/04/07 04:33:06;;;;;;;3.23;2.80;;;;;;;-0.79;69.52;99280.28;4959000;28;20414;-66
2022/04/07 04:35:32;;;;;;;6.43;3.43;;;;;;;-0.77;68.25;99270.50;4977501;28;20458;-68
2022/04/07 04:38:00;;;;;;;4.83;3.07;;;;;;;-0.72;68.61;99263.13;4976150;28;20039;-73
2022/04/07 04:40:26;;;;;;;7.88;3.45;;;;;;;-0.64;69.19;99258.06;4976500;28;20054;-73
2022/04/07 04:42:52;;;;;;;5.47;3.87;;;;;;;-0.54;68.66;99279.91;4958613;28;20038;-70
2022/04/07 04:45:17;;;;;;;6.03;4.60;;;;;;;-0.59;68.50;99266.34;4958787;28;20092;-70
2022/04/07 04:47:43;;;;;;;5.37;4.10;;;;;;;-0.49;68.41;99256.78;4977323;28;20039;-72
2022/04/07 04:50:09;;;;;;;9.17;5.10;;;;;;;-0.50;68.00;99252.53;4959372;28;20053;-70
2022/04/07 04:52:34;;;;;;;6.50;4.90;;;;;;;-0.38;68.43;99268.97;4958757;28;20038;-69
2022/04/07 04:55:00;;;;;;;12.83;4.20;;;;;;;-0.29;68.29;99270.78;4975791;28;20780;-69
2022/04/07 04:57:27;;;;;;;8.83;4.10;;;;;;;-0.42;68.23;99242.25;4942234;28;20077;-70
2022/04/07 04:59:52;;;;;;;5.47;4.23;;;;;;;-0.21;67.54;99268.38;4977250;28;20031;-69
2022/04/07 05:02:18;;;;;;;8.27;3.90;;;;;;;-0.17;67.20;99261.91;4988288;28;20272;-69
2022/04/07 05:04:43;;;;;;;5.87;3.90;;;;;;;-0.09;66.54;99267.31;4980599;28;20494;-71
2022/04/07 05:07:09;;;;;;;11.90;4.77;;;;;;;-0.08;66.38;99258.50;4977951;28;20390;-70
2022/04/07 05:09:34;;;;;;;10.10;4.10;;;;;;;-0.15;66.18;99259.16;4975968;28;20129;-70
2022/04/07 05:12:03;;;;;;;10.43;5.30;;;;;;;-0.15;66.86;99259.16;4975273;28;20050;-73
2022/04/07 05:14:29;;;;;;;;;;;;;;;-0.02;66.49;99257.97;4958316;28;20094;-69
2022/04/07 05:16:54;;;;;;;6.93;4.27;;;;;;;-0.03;65.35;99258.09;4975172;28;19917;-72
2022/04/07 05:19:20;;;;;;;7.23;4.20;;;;;;;0.04;66.30;99245.34;4975198;28;20117;-68
2022/04/07 05:21:49;;;;;;;5.50;4.20;;;;;;;0.07;65.63;99229.38;4975157;28;20037;-71
2022/04/07 05:24:17;;;;;;;11.32;5.32;;;;;;;0.17;65.45;99238.88;4976487;28;20130;-72
2022/04/07 05:26:42;;;;;;;8.60;4.70;;;;;;;0.14;65.54;99218.22;4977898;28;20066;-71
2022/04/07 05:29:08;;;;;;;9.27;5.27;;;;;;;0.18;65.18;99229.25;4974517;28;20777;-68
2022/04/07 05:31:33;;;;;;;9.07;5.00;;;;;;;0.23;65.07;99227.03;4980077;28;20038;-66
2022/04/07 05:33:59;;;;;;;8.47;5.07;;;;;;;0.29;65.49;99216.88;4974804;28;20081;-67
2022/04/07 05:36:26;;;;;;;11.57;6.53;;;;;;;0.46;65.69;99217.16;4958459;28;20050;-69
2022/04/07 05:38:52;;;;;;;9.90;4.97;;;;;;;0.52;66.11;99209.59;4966382;28;20072;-66
2022/04/07 05:41:17;;;;;;;11.70;4.90;;;;;;;0.53;65.40;99187.66;4958400;28;20266;-64
2022/04/07 05:43:43;;;;;;;8.63;4.63;;;;;;;0.80;65.24;99202.69;4974922;28;20085;-66
2022/04/07 05:46:10;;;;;;;8.43;4.87;;;;;;;0.95;64.80;99212.78;4957315;28;20050;-66
2022/04/07 05:48:35;;;;;;;9.50;5.47;;;;;;;0.93;64.56;99211.13;4974714;28;20267;-66
2022/04/07 05:51:01;;;;;;;8.20;4.67;;;;;;;0.96;64.75;99190.84;4975423;28;20125;-67
2022/04/07 05:53:27;;;;;;;9.80;5.60;;;;;;;1.01;64.93;99191.25;4974727;28;20045;-65
2022/04/07 05:55:52;;;;;;;7.20;5.00;;;;;;;1.11;65.01;99171.06;4974771;28;20035;-66
2022/04/07 05:58:19;;;;;;;8.97;5.13;;;;;;;1.16;64.54;99188.06;4957044;28;20041;-66
2022/04/07 06:00:45;;;;;;;8.67;5.07;;;;;;;1.18;65.11;99175.63;4974261;28;20510;-69
2022/04/07 06:03:11;;;;;;;11.57;7.10;;;;;;;1.25;65.00;99162.78;4987054;28;20335;-69
2022/04/07 06:05:37;;;;;;;10.60;6.00;;;;;;;1.31;64.71;99174.50;4992265;28;20297;-71
2022/04/07 06:08:03;;;;;;;15.03;7.57;;;;;;;1.34;65.24;99159.28;4970053;28;20280;-72
2022/04/07 06:10:32;;;;;;;10.27;5.60;;;;;;;1.27;65.21;99133.78;4981632;28;20034;-72
2022/04/07 06:13:01;;;;;;;12.53;4.80;;;;;;;1.66;64.69;99171.19;4983528;28;20053;-75
2022/04/07 06:15:28;;;;;;;6.17;4.67;;;;;;;1.49;64.98;99143.94;4978981;28;20262;-68
2022/04/07 06:17:54;;;;;;;8.73;4.23;;;;;;;1.39;65.29;99138.69;4974079;28;20034;-68
2022/04/07 06:20:21;;;;;;;7.90;4.40;;;;;;;1.35;66.37;99158.31;4974183;28;20776;-70
2022/04/07 06:22:47;;;;;;;7.63;3.97;;;;;;;1.18;67.05;99145.97;4974774;28;20313;-68
2022/04/07 06:25:13;;;;;;;7.40;4.83;;;;;;;1.18;68.02;99159.06;4973864;28;20329;-67
2022/04/07 06:27:41;;;;;;;5.50;3.70;;;;;;;1.13;68.57;99153.41;4973857;28;20035;-63
2022/04/07 06:30:11;;;;;;;4.63;3.33;;;;;;;1.11;69.32;99139.63;4974064;28;20298;-64
2022/04/07 06:32:38;;;;;;;6.03;3.73;;;;;;;1.16;70.68;99140.88;4956473;28;20273;-67
2022/04/07 06:35:04;;;;;;;4.77;4.17;;;;;;;1.03;70.87;99131.63;4974076;28;20266;-69
2022/04/07 06:37:30;;;;;;;8.10;3.93;;;;;;;1.03;72.27;99126.41;4957169;28;20301;-67
2022/04/07 06:40:03;;;;;;;9.13;4.37;;;;;;;1.18;71.80;99125.00;4973346;28;20313;-67
2022/04/07 06:42:29;;;;;;;7.60;3.87;;;;;;;1.14;72.02;99113.09;4974068;28;20055;-65
2022/04/07 06:44:57;;;;;;;6.10;4.27;;;;;;;1.28;71.79;99117.91;4956502;28;20377;-67
2022/04/07 06:47:23;;;;;;;7.75;4.25;;;;;;;1.44;71.98;99120.72;4956458;28;20105;-63
2022/04/07 06:49:50;;;;;;;8.57;5.03;;;;;;;1.23;72.17;99101.78;4973819;28;20034;-64
2022/04/07 06:52:16;;;;;;;4.37;3.60;;;;;;;1.12;73.44;99101.94;4974891;28;20097;-69
2022/04/07 06:54:41;;;;;;;6.63;4.40;;;;;;;1.14;73.41;99097.38;4973988;28;20273;-65
2022/04/07 06:57:07;;;;;;;10.80;4.27;;;;;;;1.09;74.00;99073.38;4973893;28;20324;-68
2022/04/07 06:59:32;;;;;;;4.97;3.33;;;;;;;1.12;74.69;99075.72;4957516;28;20108;-69
2022/04/07 07:01:58;;;;;;;5.43;3.67;;;;;;;1.02;74.08;99069.69;4975559;28;20054;-63
2022/04/07 07:04:24;;;;;;;5.70;4.13;;;;;;;1.01;75.24;99065.41;4958582;28;20043;-66
2022/04/07 07:06:50;;;;;;;5.47;3.50;;;;;;;0.95;75.61;99063.38;4976871;28;20039;-65
2022/04/07 07:09:15;;;;;;;8.23;3.67;;;;;;;0.97;75.45;99051.78;4957219;28;20373;-66
2022/04/07 07:11:43;;;;;;;7.33;3.23;;;;;;;1.08;74.93;99066.50;4972752;28;20124;-67
2022/04/07 07:14:09;;;;;;;6.00;4.75;;;;;;;1.13;75.11;99057.22;4972991;28;20047;-67
2022/04/07 07:16:34;;;;;;;6.77;4.93;;;;;;;0.98;75.43;99050.81;4973308;28;20039;-68
2022/04/07 07:19:00;;;;;;;5.37;4.03;;;;;;;0.90;75.67;99056.78;4973460;28;20070;-67
2022/04/07 07:21:25;;;;;;;8.50;4.43;;;;;;;0.87;76.97;99049.19;4973872;28;20101;-63
2022/04/07 07:23:51;;;;;;;4.40;3.23;;;;;;;0.92;75.82;99057.47;4955647;28;20047;-63
2022/04/07 07:26:16;;;;;;;7.07;4.47;;;;;;;1.03;76.10;99055.63;4974313;28;20183;-64
2022/04/07 07:28:41;;;;;;;6.67;3.77;;;;;;;1.06;76.23;99057.94;4974182;28;20051;-67
2022/04/07 07:31:07;;;;;;;9.47;3.50;;;;;;;1.01;75.90;99044.44;4957779;28;20125;-66
2022/04/07 07:33:32;;;;;;;5.67;4.50;;;;;;;0.87;76.71;99023.00;4978008;28;20126;-66
2022/04/07 07:35:58;;;;;;;9.93;3.30;;;;;;;1.00;76.65;99045.41;4993127;28;20469;-65
2022/04/07 07:38:23;;;;;;;4.73;4.13;;;;;;;1.08;76.73;99056.00;4975955;28;20081;-62
2022/04/07 07:40:49;;;;;;;6.23;3.40;;;;;;;1.10;76.93;99035.72;4970445;28;20125;-60
2022/04/07 07:43:14;;;;;;;8.93;3.43;;;;;;;1.05;76.59;99041.41;4988307;28;20093;-65
2022/04/07 07:45:40;;;;;;;5.27;3.83;;;;;;;1.01;77.06;99024.31;4992371;28;20038;-64
2022/04/07 07:48:07;;;;;;;4.20;3.20;;;;;;;1.05;77.22;99037.94;4975338;28;20046;-65
2022/04/07 07:50:32;;;;;;;5.67;2.97;;;;;;;0.99;77.81;99009.69;4992383;28;20254;-62
2022/04/07 07:52:58;;;;;;;3.37;2.93;;;;;;;1.05;77.53;99024.84;4997397;28;20040;-67
2022/04/07 07:55:24;;;;;;;5.17;3.23;;;;;;;1.22;76.93;99024.09;4987675;28;20486;-70
2022/04/07 07:57:50;;;;;;;4.47;3.13;;;;;;;1.30;76.72;99024.19;4967793;28;20043;-68
2022/04/07 08:00:17;;;;;;;3.97;3.00;;;;;;;1.32;76.15;99019.59;4966282;28;20112;-67
2022/04/07 08:02:43;;;;;;;3.90;3.07;;;;;;;1.44;75.55;99007.94;4987338;28;20331;-66
2022/04/07 08:05:09;;;;;;;14.53;4.00;;;;;;;1.48;75.88;99006.69;4984259;28;20305;-72
2022/04/07 08:07:42;;;;;;;5.50;3.40;;;;;;;1.45;75.60;98999.13;4970679;28;20263;-71
2022/04/07 08:10:08;;;;;;;3.33;2.73;;;;;;;1.38;76.67;98995.41;4984465;28;20029;-69
2022/04/07 08:12:34;;;;;;;4.20;3.40;;;;;;;1.35;76.83;99006.19;4984158;28;20802;-64
2022/04/07 08:14:59;;;;;;;3.50;3.13;;;;;;;1.26;77.43;98996.59;4975912;28;20287;-63
2022/04/07 08:17:25;;;;;;;4.60;2.93;;;;;;;1.24;77.39;98993.28;4958992;28;20510;-64
2022/04/07 08:19:50;;;;;;;4.13;3.40;;;;;;;1.33;76.87;98997.66;4976452;28;20171;-69
2022/04/07 08:22:16;;;;;;;6.17;4.03;;;;;;;1.45;77.55;99000.91;4960689;28;20039;-71
2022/04/07 08:24:41;;;;;;;5.47;2.93;;;;;;;1.59;76.96;98997.78;4977831;28;20045;-67
2022/04/07 08:27:07;;;;;;;4.43;3.00;;;;;;;1.66;76.74;98992.75;4944976;28;20030;-66
2022/04/07 08:29:33;;;;;;;6.53;2.83;;;;;;;1.65;76.14;98997.16;4959300;28;20067;-63
2022/04/07 08:31:59;;;;;;;4.17;3.00;;;;;;;1.65;77.40;98985.84;4976155;28;20034;-69
2022/04/07 08:34:25;;;;;;;5.23;4.10;;;;;;;1.70;76.97;98979.16;4976123;28;20270;-66
2022/04/07 08:36:52;;;;;;;6.60;3.40;;;;;;;1.96;76.49;98986.28;4976117;28;20105;-66
2022/04/07 08:39:18;;;;;;;4.57;3.40;;;;;;;2.09;75.38;98984.94;4976721;28;20265;-68
2022/04/07 08:41:45;;;;;;;8.43;4.10;;;;;;;2.18;75.75;98983.22;4976529;28;20274;-69
2022/04/07 08:44:12;;;;;;;4.67;3.17;;;;;;;2.21;74.47;98961.06;4976311;28;20349;-65
2022/04/07 08:46:39;;;;;;;5.23;3.23;;;;;;;2.59;73.85;98980.84;4975750;28;20361;-66
2022/04/07 08:49:07;;;;;;;4.87;3.57;;;;;;;2.74;73.17;98964.34;4975841;28;20316;-66
2022/04/07 08:51:32;;;;;;;4.80;2.80;;;;;;;2.88;72.48;98965.56;4975893;28;20325;-68
2022/04/07 08:53:58;;;;;;;5.23;3.90;;;;;;;2.80;72.64;98963.72;4976031;28;20278;-63
2022/04/07 08:56:24;;;;;;;8.40;3.53;;;;;;;2.62;73.48;98963.00;4976632;28;20045;-65
2022/04/07 08:58:50;;;;;;;4.50;3.33;;;;;;;2.60;74.01;98957.06;4976355;28;20030;-64
2022/04/07 09:01:16;;;;;;;5.20;3.37;;;;;;;2.68;74.19;98954.47;4975677;28;20324;-68
2022/04/07 09:03:43;;;;;;;6.67;3.33;;;;;;;2.68;73.94;98954.47;4957480;28;20366;-63
2022/04/07 09:06:09;;;;;;;7.47;4.57;;;;;;;2.82;74.34;98950.41;4977700;28;20050;-64
2022/04/07 09:08:38;;;;;;;5.77;4.07;;;;;;;2.89;73.72;98953.25;4979774;28;20258;-64
2022/04/07 09:11:06;;;;;;;6.53;3.55;;;;;;;2.72;73.37;98950.56;4976861;28;20046;-66
2022/04/07 09:13:42;;;;;;;9.77;3.73;;;;;;;2.70;74.17;98952.50;4961612;28;20055;-64
2022/04/07 09:16:37;;;;;;;6.03;4.27;;;;;;;2.71;74.80;98942.81;4962336;28;20351;-63
2022/04/07 09:19:04;;;;;;;7.20;4.73;;;;;;;2.65;74.37;98933.75;4975474;28;20282;-66
2022/04/07 09:21:31;;;;;;;5.87;4.30;;;;;;;2.57;75.71;98917.94;4975745;28;20273;-64
2022/04/07 09:23:58;;;;;;;4.93;3.63;;;;;;;2.79;74.83;98935.78;4958701;28;20349;-62
2022/04/07 09:26:24;;;;;;;4.33;3.50;;;;;;;2.96;75.44;98941.13;4975225;28;20274;-65
2022/04/07 09:28:54;;;;;;;3.57;3.23;;;;;;;3.01;74.25;98938.84;4975474;28;20741;-64
2022/04/07 09:31:22;;;;;;;6.70;3.70;;;;;;;2.89;74.49;98934.84;4975601;28;20748;-63
2022/04/07 09:33:55;;;;;;;4.78;3.95;;;;;;;2.82;74.88;98937.28;4976875;28;20806;-67
2022/04/07 09:36:22;;;;;;;6.90;4.20;;;;;;;2.76;75.19;98935.28;4977400;28;20093;-63
2022/04/07 09:38:52;;;;;;;3.97;3.30;;;;;;;2.67;75.44;98908.16;4976003;28;20378;-66
2022/04/07 09:41:21;;;;;;;4.53;4.10;;;;;;;2.90;75.01;98926.00;4975104;28;20266;-66
2022/04/07 09:43:53;;;;;;;6.40;3.80;;;;;;;2.83;75.36;98923.16;4975599;28;20722;-57
2022/04/07 09:46:20;;;;;;;7.37;3.87;;;;;;;2.76;74.98;98925.59;4975770;28;20270;-66
2022/04/07 09:49:00;;;;;;;4.57;3.93;;;;;;;2.47;75.83;98898.84;4976240;28;20286;-69
2022/04/07 09:51:27;;;;;;;5.57;4.70;;;;;;;2.49;76.09;98918.72;4974936;28;20285;-61
2022/04/07 09:53:57;;;;;;;5.17;4.53;;;;;;;2.59;76.18;98910.72;4974929;28;20767;-64
2022/04/07 09:56:27;;;;;;;6.80;4.40;;;;;;;2.74;76.45;98911.78;4974659;28;20270;-63
2022/04/07 09:58:56;;;;;;;4.30;3.90;;;;;;;2.88;76.17;98907.72;4974120;28;20646;-64
2022/04/07 10:01:23;;;;;;;4.90;4.25;;;;;;;2.98;75.37;98912.88;4956795;28;20634;-61
2022/04/07 10:03:51;;;;;;;4.47;4.00;;;;;;;2.96;75.47;98904.31;4974490;28;20037;-63
2022/04/07 10:06:17;;;;;;;4.37;3.90;;;;;;;2.96;75.17;98904.31;4974254;28;20278;-63
2022/04/07 10:08:46;;;;;;;7.97;5.70;;;;;;;3.07;75.62;98891.69;4974452;28;20316;-67
2022/04/07 10:11:16;;;;;;;6.00;4.53;;;;;;;3.03;75.14;98895.63;4973934;28;20262;-65
2022/04/07 10:13:44;;;;;;;7.17;5.03;;;;;;;2.94;75.61;98887.88;4974123;28;20282;-63
2022/04/07 10:16:10;;;;;;;5.13;3.97;;;;;;;2.88;75.91;98891.13;4975167;28;20300;-63
2022/04/07 10:19:03;;;;;;;7.87;5.20;;;;;;;2.86;76.47;98893.09;4959219;28;20369;-61
2022/04/07 10:21:49;;;;;;;5.03;4.07;;;;;;;2.89;76.69;98892.75;4959317;28;20297;-63
2022/04/07 10:24:20;;;;;;;5.93;4.80;;;;;;;2.67;76.31;98867.91;4974915;28;20333;-63
2022/04/07 10:26:47;;;;;;;5.67;4.30;;;;;;;2.78;77.34;98878.94;4974267;28;20270;-73
2022/04/07 10:29:23;;;;;;;4.87;4.13;;;;;;;2.75;76.84;98884.50;4973914;28;20318;-69
2022/04/07 10:32:10;;;;;;;5.37;4.57;;;;;;;2.71;76.88;98885.81;4973726;28;20266;-66
2022/04/07 10:34:37;;;;;;;5.13;4.63;;;;;;;2.54;78.30;98884.09;4973826;28;20300;-68
2022/04/07 10:37:06;;;;;;;6.37;3.93;;;;;;;2.58;78.68;98874.09;4973879;28;20758;-69
2022/04/07 10:39:34;;;;;;;7.30;5.03;;;;;;;2.64;78.22;98841.94;4975057;28;20270;-69
2022/04/07 10:42:00;;;;;;;;;;;;;;;2.97;76.80;98869.16;4977140;28;20046;-69
2022/04/07 10:44:27;;;;;;;9.77;4.87;;;;;;;2.99;76.71;98870.63;4977587;28;20348;-65
2022/04/07 10:47:07;;;;;;;7.80;4.20;;;;;;;3.00;76.70;98869.66;4958541;28;20041;-66
2022/04/07 10:49:33;;;;;;;5.27;4.77;;;;;;;2.90;76.88;98857.63;4974665;28;20674;-67
2022/04/07 10:52:27;;;;;;;5.93;4.33;;;;;;;2.82;77.09;98854.97;4974686;28;20340;-65
2022/04/07 10:55:10;;;;;;;6.80;4.27;;;;;;;2.84;77.79;98858.25;4974748;28;20682;-63
2022/04/07 10:58:13;;;;;;;6.13;4.67;;;;;;;2.93;77.61;98862.56;4973544;28;20333;-69
2022/04/07 11:00:39;;;;;;;5.97;4.70;;;;;;;2.97;76.86;98858.63;4973490;28;20258;-67
2022/04/07 11:03:15;;;;;;;9.23;5.07;;;;;;;3.00;77.26;98864.38;4973286;28;20263;-66
2022/04/07 11:05:58;;;;;;;6.70;5.27;;;;;;;2.89;77.49;98854.19;4955918;28;20039;-66
2022/04/07 11:08:23;;;;;;;6.10;4.90;;;;;;;2.83;77.46;98851.34;4973602;28;20273;-67
2022/04/07 11:10:50;;;;;;;8.20;5.83;;;;;;;2.80;77.97;98850.69;4940649;28;20681;-67
2022/04/07 11:13:16;;;;;;;5.80;5.30;;;;;;;2.90;78.16;98857.63;4973103;28;20122;-63
2022/04/07 11:15:49;;;;;;;8.83;6.63;;;;;;;2.93;77.75;98852.06;4955449;28;20290;-63
2022/04/07 11:18:25;;;;;;;6.50;5.43;;;;;;;2.88;78.12;98849.06;4972965;28;20317;-66
2022/04/07 11:21:09;;;;;;;8.73;7.23;;;;;;;2.84;78.02;98855.63;4973327;28;20274;-64
2022/04/07 11:23:52;;;;;;;8.37;6.23;;;;;;;2.72;78.28;98861.19;4973220;28;20274;-64
2022/04/07 11:26:24;;;;;;;6.83;5.77;;;;;;;2.68;78.93;98854.59;4956483;28;20803;-68
2022/04/07 11:29:10;;;;;;;7.67;6.40;;;;;;;2.68;79.12;98843.25;4972990;28;20306;-63
2022/04/07 11:31:48;;;;;;;11.53;7.10;;;;;;;2.87;79.59;98848.22;4973200;28;20270;-68
2022/04/07 11:34:36;;;;;;;7.72;6.45;;;;;;;2.88;78.32;98851.69;4973098;28;20273;-64
2022/04/07 11:37:19;;;;;;;9.07;6.07;;;;;;;2.80;79.08;98849.84;4955485;28;20409;-67
2022/04/07 11:39:46;;;;;;;12.70;6.27;;;;;;;2.79;78.84;98849.03;4973639;28;20266;-69